createdAt,value
2023-01-07T00:01:16.967Z,68.50
2023-01-07T00:03:44.093Z,68.60
2023-01-07T00:06:15.447Z,68.60
2023-01-07T00:08:46.283Z,68.60
2023-01-07T00:11:16.633Z,68.60
2023-01-07T00:13:44.141Z,68.80
2023-01-07T00:16:15.269Z,68.80
2023-01-07T00:18:42.094Z,68.70
2023-01-07T00:21:10.418Z,68.70
2023-01-07T00:23:37.676Z,68.90
2023-01-07T00:26:12.132Z,69.00
2023-01-07T00:28:40.084Z,69.20
2023-01-07T00:31:17.904Z,69.00
2023-01-07T00:33:56.832Z,69.10
2023-01-07T00:36:25.087Z,69.00
2023-01-07T00:39:00.487Z,68.70
2023-01-07T00:41:27.270Z,68.40
2023-01-07T00:43:54.905Z,68.50
2023-01-07T00:46:21.899Z,68.80
2023-01-07T00:48:48.892Z,68.80
2023-01-07T00:51:16.186Z,68.90
2023-01-07T00:53:43.030Z,68.80
2023-01-07T00:56:10.378Z,68.80
2023-01-07T00:58:37.169Z,68.80
2023-01-07T01:01:04.320Z,68.90
2023-01-07T01:03:31.518Z,68.90
2023-01-07T01:06:02.572Z,68.90
2023-01-07T01:08:29.327Z,68.80
2023-01-07T01:10:56.131Z,68.90
2023-01-07T01:13:22.823Z,68.90
2023-01-07T01:15:49.781Z,69.00
2023-01-07T01:18:16.720Z,68.90
2023-01-07T01:20:43.498Z,69.00
2023-01-07T01:23:10.270Z,68.90
2023-01-07T01:25:37.080Z,68.90
2023-01-07T01:28:03.983Z,68.80
2023-01-07T01:30:30.779Z,68.90
2023-01-07T01:32:57.586Z,69.10
2023-01-07T01:35:24.266Z,69.10
2023-01-07T01:37:50.990Z,68.80
2023-01-07T01:40:17.858Z,68.60
2023-01-07T01:42:44.629Z,68.80
2023-01-07T01:45:11.923Z,68.80
2023-01-07T01:47:50.598Z,68.70
2023-01-07T01:50:19.001Z,68.70
2023-01-07T01:52:55.302Z,68.70
2023-01-07T01:55:30.077Z,68.90
2023-01-07T01:57:59.510Z,69.10
2023-01-07T02:00:26.584Z,69.40
2023-01-07T02:02:56.990Z,69.40
2023-01-07T02:05:32.001Z,69.50
2023-01-07T02:07:58.833Z,69.70
2023-01-07T02:10:26.708Z,69.50
2023-01-07T02:13:25.598Z,69.50
2023-01-07T02:16:20.125Z,69.40
2023-01-07T02:19:29.804Z,70.00
2023-01-07T02:22:10.307Z,70.00
2023-01-07T02:25:06.316Z,71.00
2023-01-07T02:27:50.087Z,70.10
2023-01-07T02:30:34.439Z,70.10
2023-01-07T02:33:11.639Z,70.20
2023-01-07T02:35:50.147Z,70.30
2023-01-07T02:38:40.875Z,70.20
2023-01-07T02:41:22.191Z,70.30
2023-01-07T02:43:55.224Z,70.10
2023-01-07T02:46:42.794Z,70.30
2023-01-07T02:49:10.640Z,70.40
2023-01-07T02:51:38.867Z,70.60
2023-01-07T02:54:12.802Z,71.50
2023-01-07T02:57:18.196Z,70.60
2023-01-07T03:00:02.915Z,70.60
2023-01-07T03:02:55.520Z,70.60
2023-01-07T03:05:47.014Z,70.60
2023-01-07T03:08:34.517Z,70.60
2023-01-07T03:11:08.580Z,70.70
2023-01-07T03:13:42.994Z,70.60
2023-01-07T03:16:21.912Z,70.40
2023-01-07T03:19:13.524Z,70.50
2023-01-07T03:21:40.268Z,70.70
2023-01-07T03:24:08.285Z,70.50
2023-01-07T03:26:43.677Z,70.80
2023-01-07T03:29:11.480Z,70.80
2023-01-07T03:31:38.757Z,70.80
2023-01-07T03:34:10.370Z,70.80
2023-01-07T03:36:45.364Z,71.10
2023-01-07T03:39:12.477Z,71.10
2023-01-07T03:41:58.093Z,71.10
2023-01-07T03:44:24.866Z,71.20
2023-01-07T03:46:51.742Z,71.30
2023-01-07T03:49:18.527Z,71.20
2023-01-07T03:51:46.508Z,71.20
2023-01-07T03:54:13.630Z,71.10
2023-01-07T03:56:40.434Z,71.30
2023-01-07T03:59:07.221Z,71.40
2023-01-07T04:01:34.019Z,71.40
2023-01-07T04:04:03.222Z,71.30
2023-01-07T04:06:30.328Z,71.30
2023-01-07T04:08:57.133Z,71.40
2023-01-07T04:11:23.893Z,71.50
2023-01-07T04:13:50.669Z,71.40
2023-01-07T04:16:17.463Z,71.40
2023-01-07T04:18:44.263Z,71.50
2023-01-07T04:21:11.045Z,71.70
2023-01-07T04:23:37.834Z,72.00
2023-01-07T04:26:04.924Z,72.30
2023-01-07T04:28:31.736Z,72.30
2023-01-07T04:30:59.422Z,72.20
2023-01-07T04:33:26.252Z,72.40
2023-01-07T04:35:52.987Z,72.30
2023-01-07T04:38:19.767Z,72.00
2023-01-07T04:40:46.803Z,72.00
2023-01-07T04:43:13.583Z,72.10
2023-01-07T04:45:40.311Z,72.20
2023-01-07T04:48:07.128Z,72.30
2023-01-07T04:50:33.858Z,72.30
2023-01-07T04:53:00.602Z,72.30
2023-01-07T04:55:27.412Z,72.40
2023-01-07T04:57:54.174Z,72.50
2023-01-07T05:00:21.020Z,72.40
2023-01-07T05:02:47.815Z,72.40
2023-01-07T05:05:14.568Z,72.50
2023-01-07T05:07:41.300Z,72.50
2023-01-07T05:10:08.317Z,72.30
2023-01-07T05:12:35.524Z,72.30
2023-01-07T05:15:03.298Z,73.10
2023-01-07T05:17:30.045Z,72.30
2023-01-07T05:19:56.791Z,72.50
2023-01-07T05:22:24.056Z,72.60
2023-01-07T05:24:50.755Z,72.70
2023-01-07T05:27:17.512Z,72.60
2023-01-07T05:29:44.270Z,72.40
2023-01-07T05:32:11.015Z,72.90
2023-01-07T05:34:37.819Z,73.00
2023-01-07T05:37:04.725Z,73.10
2023-01-07T05:39:31.501Z,73.00
2023-01-07T05:41:58.279Z,73.00
2023-01-07T05:44:25.040Z,72.90
2023-01-07T05:46:51.873Z,72.60
2023-01-07T05:49:18.674Z,72.80
2023-01-07T05:51:47.910Z,73.00
2023-01-07T05:54:14.665Z,72.90
2023-01-07T05:56:41.439Z,72.60
2023-01-07T05:59:08.261Z,72.60
2023-01-07T06:01:35.008Z,72.90
2023-01-07T06:04:01.813Z,73.50
2023-01-07T06:06:28.546Z,74.10
2023-01-07T06:08:55.353Z,74.20
2023-01-07T06:11:22.110Z,74.10
2023-01-07T06:13:48.869Z,74.00
2023-01-07T06:16:16.034Z,73.80
2023-01-07T06:18:42.800Z,73.70
2023-01-07T06:21:09.493Z,73.70
2023-01-07T06:23:37.238Z,73.70
2023-01-07T06:26:04.075Z,73.60
2023-01-07T06:28:30.849Z,73.40
2023-01-07T06:30:57.704Z,73.70
2023-01-07T06:33:24.755Z,73.80
2023-01-07T06:35:51.551Z,73.70
2023-01-07T06:38:18.347Z,73.40
2023-01-07T06:40:47.462Z,73.50
2023-01-07T06:43:14.254Z,73.40
2023-01-07T06:45:41.710Z,73.20
2023-01-07T06:48:08.590Z,73.80
2023-01-07T06:50:35.346Z,73.90
2023-01-07T06:53:02.071Z,73.70
2023-01-07T06:55:28.804Z,73.90
2023-01-07T06:57:55.584Z,74.00
2023-01-07T07:00:22.429Z,74.10
2023-01-07T07:02:49.322Z,74.10
2023-01-07T07:05:16.337Z,74.00
2023-01-07T07:07:43.167Z,73.80
2023-01-07T07:10:10.120Z,73.80
2023-01-07T07:12:37.836Z,74.30
2023-01-07T07:15:05.563Z,74.10
2023-01-07T07:17:32.325Z,74.00
2023-01-07T07:19:59.123Z,74.00
2023-01-07T07:22:25.892Z,73.90
2023-01-07T07:24:52.683Z,73.90
2023-01-07T07:27:19.510Z,73.60
2023-01-07T07:29:46.209Z,73.80
2023-01-07T07:32:12.983Z,73.70
2023-01-07T07:34:39.727Z,73.80
2023-01-07T07:37:06.631Z,74.00
2023-01-07T07:39:33.850Z,73.90
2023-01-07T07:42:04.428Z,74.10
2023-01-07T07:44:31.238Z,73.80
2023-01-07T07:46:58.082Z,73.70
2023-01-07T07:49:24.914Z,73.90
2023-01-07T07:51:51.846Z,73.80
2023-01-07T07:54:18.651Z,73.80
2023-01-07T07:56:45.349Z,73.70
2023-01-07T07:59:12.184Z,73.90
2023-01-07T08:01:39.133Z,73.80
2023-01-07T08:04:06.036Z,73.60
2023-01-07T08:06:34.207Z,73.70
2023-01-07T08:09:01.308Z,73.80
2023-01-07T08:11:28.072Z,73.80
2023-01-07T08:13:54.922Z,73.80
2023-01-07T08:16:21.748Z,73.90
2023-01-07T08:18:48.909Z,73.60
2023-01-07T08:21:15.636Z,74.00
2023-01-07T08:23:42.459Z,74.00
2023-01-07T08:26:09.291Z,74.10
2023-01-07T08:28:36.480Z,74.00
2023-01-07T08:31:07.005Z,73.90
2023-01-07T08:33:37.467Z,74.10
2023-01-07T08:36:09.377Z,73.90
2023-01-07T08:38:38.865Z,74.10
2023-01-07T08:41:05.732Z,74.10
2023-01-07T08:43:33.444Z,74.20
2023-01-07T08:46:00.159Z,74.20
2023-01-07T08:48:26.875Z,73.90
2023-01-07T08:50:54.060Z,74.30
2023-01-07T08:53:21.475Z,73.90
2023-01-07T08:55:48.256Z,74.50
2023-01-07T08:58:14.939Z,74.60
2023-01-07T09:00:41.849Z,74.50
2023-01-07T09:03:08.695Z,74.20
2023-01-07T09:05:35.495Z,74.10
2023-01-07T09:08:03.852Z,74.50
2023-01-07T09:10:30.657Z,74.70
2023-01-07T09:12:57.346Z,74.80
2023-01-07T09:15:24.105Z,74.90
2023-01-07T09:17:50.936Z,74.90
2023-01-07T09:20:17.808Z,74.70
2023-01-07T09:22:44.589Z,74.30
2023-01-07T09:25:11.384Z,74.00
2023-01-07T09:27:38.228Z,74.10
2023-01-07T09:30:05.719Z,74.50
2023-01-07T09:32:32.455Z,74.70
2023-01-07T09:34:59.185Z,75.10
2023-01-07T09:37:26.062Z,74.20
2023-01-07T09:39:52.852Z,74.00
2023-01-07T09:42:44.131Z,74.20
2023-01-07T09:45:21.326Z,74.50
2023-01-07T09:47:50.245Z,74.40
2023-01-07T09:50:25.546Z,74.50
2023-01-07T09:52:53.842Z,74.00
2023-01-07T09:55:35.195Z,73.90
2023-01-07T09:58:02.029Z,74.70
2023-01-07T10:00:29.679Z,74.00
2023-01-07T10:03:08.428Z,74.20
2023-01-07T10:05:56.301Z,74.30
2023-01-07T10:08:35.726Z,74.50
2023-01-07T10:11:34.617Z,74.30
2023-01-07T10:14:58.487Z,74.50
2023-01-07T10:17:55.813Z,74.10
2023-01-07T10:20:43.070Z,74.30
2023-01-07T10:23:28.718Z,74.00
2023-01-07T10:25:56.334Z,74.30
2023-01-07T10:28:40.256Z,74.20
2023-01-07T10:31:08.497Z,74.30
2023-01-07T10:33:35.320Z,74.60
2023-01-07T10:36:32.649Z,74.60
2023-01-07T10:39:19.821Z,74.60
2023-01-07T10:41:59.067Z,74.50
2023-01-07T10:44:43.399Z,74.50
2023-01-07T10:47:19.395Z,74.70
2023-01-07T10:49:58.175Z,75.10
2023-01-07T10:52:47.784Z,74.90
2023-01-07T10:55:29.334Z,74.50
2023-01-07T10:57:56.104Z,74.40
2023-01-07T11:00:22.939Z,74.50
2023-01-07T11:02:59.365Z,74.90
2023-01-07T11:05:38.019Z,75.10
2023-01-07T11:08:07.829Z,75.30
2023-01-07T11:10:36.473Z,75.40
2023-01-07T11:13:16.395Z,75.70
2023-01-07T11:15:49.332Z,75.30
2023-01-07T11:18:31.959Z,75.20
2023-01-07T11:20:59.226Z,75.20
2023-01-07T11:23:43.891Z,75.20
2023-01-07T11:26:33.998Z,75.20
2023-01-07T11:29:22.749Z,75.50
2023-01-07T11:31:51.775Z,76.10
2023-01-07T11:34:28.427Z,76.10
2023-01-07T11:36:55.229Z,76.30
2023-01-07T11:39:24.180Z,76.10
2023-01-07T11:41:58.705Z,75.90
2023-01-07T11:44:25.738Z,76.00
2023-01-07T11:46:52.782Z,76.00
2023-01-07T11:49:22.758Z,75.70
2023-01-07T11:51:49.835Z,76.00
2023-01-07T11:54:29.401Z,76.10
2023-01-07T11:57:11.465Z,76.00
2023-01-07T11:59:38.305Z,76.10
2023-01-07T12:02:22.286Z,76.20
2023-01-07T12:04:49.074Z,76.40
2023-01-07T12:07:15.866Z,76.40
2023-01-07T12:09:43.592Z,76.00
2023-01-07T12:12:31.952Z,76.20
2023-01-07T12:15:04.501Z,76.20
2023-01-07T12:17:32.550Z,76.10
2023-01-07T12:20:31.916Z,76.10
2023-01-07T12:23:18.053Z,76.20
2023-01-07T12:25:58.923Z,76.30
2023-01-07T12:28:33.030Z,76.40
2023-01-07T12:31:03.322Z,76.50
2023-01-07T12:33:35.813Z,76.50
2023-01-07T12:36:10.452Z,76.40
2023-01-07T12:38:51.685Z,76.20
2023-01-07T12:41:20.862Z,77.10
2023-01-07T12:43:52.946Z,76.50
2023-01-07T12:46:20.247Z,76.20
2023-01-07T12:48:55.937Z,76.30
2023-01-07T12:51:28.697Z,76.50
2023-01-07T12:53:59.855Z,76.40
2023-01-07T12:56:33.920Z,76.50
2023-01-07T12:59:11.352Z,76.60
2023-01-07T13:02:06.700Z,76.50
2023-01-07T13:05:09.950Z,77.40
2023-01-07T13:07:42.749Z,76.40
2023-01-07T13:10:14.300Z,76.30
2023-01-07T13:12:45.797Z,76.20
2023-01-07T13:15:30.369Z,76.30
2023-01-07T13:18:12.969Z,76.40
2023-01-07T13:20:43.384Z,76.50
2023-01-07T13:23:41.652Z,76.40
2023-01-07T13:26:17.030Z,76.50
2023-01-07T13:29:06.817Z,76.40
2023-01-07T13:31:41.895Z,76.40
2023-01-07T13:34:15.385Z,75.80
2023-01-07T13:36:45.269Z,76.20
2023-01-07T13:39:24.033Z,75.60
2023-01-07T13:42:05.070Z,75.70
2023-01-07T13:44:49.982Z,76.10
2023-01-07T13:47:18.843Z,76.00
2023-01-07T13:49:56.721Z,75.70
2023-01-07T13:52:26.879Z,75.40
2023-01-07T13:54:54.259Z,75.30
2023-01-07T13:57:24.206Z,75.70
2023-01-07T13:59:54.728Z,75.50
2023-01-07T14:02:22.953Z,75.40
2023-01-07T14:05:08.376Z,75.20
2023-01-07T14:07:49.348Z,75.10
2023-01-07T14:10:24.352Z,75.20
2023-01-07T14:13:11.320Z,75.30
2023-01-07T14:15:54.009Z,75.40
2023-01-07T14:18:31.403Z,75.20
2023-01-07T14:21:15.732Z,75.30
2023-01-07T14:24:00.526Z,75.10
2023-01-07T14:26:55.923Z,74.90
2023-01-07T14:29:50.323Z,74.80
2023-01-07T14:32:31.107Z,75.10
2023-01-07T14:35:00.328Z,74.70
2023-01-07T14:37:40.470Z,74.80
2023-01-07T14:40:27.121Z,75.10
2023-01-07T14:42:54.156Z,74.80
2023-01-07T14:45:39.573Z,74.50
2023-01-07T14:48:09.368Z,74.60
2023-01-07T14:50:40.502Z,74.40
2023-01-07T14:53:16.433Z,74.60
2023-01-07T14:55:55.558Z,74.50
2023-01-07T14:58:28.208Z,74.40
2023-01-07T15:01:05.204Z,74.30
2023-01-07T15:03:47.121Z,74.30
2023-01-07T15:06:27.737Z,74.50
2023-01-07T15:09:23.071Z,74.70
2023-01-07T15:12:08.765Z,74.40
2023-01-07T15:15:20.485Z,74.20
2023-01-07T15:17:47.283Z,74.30
2023-01-07T15:20:14.081Z,73.60
2023-01-07T15:22:50.095Z,73.90
2023-01-07T15:25:42.262Z,74.00
2023-01-07T15:28:18.147Z,74.00
2023-01-07T15:30:53.343Z,74.00
2023-01-07T15:33:41.424Z,74.30
2023-01-07T15:36:09.729Z,74.30
2023-01-07T15:38:50.275Z,74.20
2023-01-07T15:41:30.258Z,74.20
2023-01-07T15:43:57.168Z,73.60
2023-01-07T15:46:24.714Z,73.90
2023-01-07T15:49:09.844Z,73.90
2023-01-07T15:51:39.766Z,74.10
2023-01-07T15:54:19.157Z,74.00
2023-01-07T15:56:45.901Z,73.70
2023-01-07T15:59:13.743Z,73.60
2023-01-07T16:01:48.033Z,73.50
2023-01-07T16:04:30.549Z,73.30
2023-01-07T16:06:58.389Z,73.40
2023-01-07T16:09:25.393Z,73.20
2023-01-07T16:11:52.270Z,73.10
2023-01-07T16:14:24.113Z,73.00
2023-01-07T16:17:15.698Z,72.70
2023-01-07T16:19:42.526Z,72.60
2023-01-07T16:22:15.855Z,72.40
2023-01-07T16:24:50.761Z,72.70
2023-01-07T16:27:18.975Z,72.70
2023-01-07T16:29:50.272Z,72.60
2023-01-07T16:32:18.430Z,72.70
2023-01-07T16:34:59.481Z,72.10
2023-01-07T16:37:26.234Z,72.30
2023-01-07T16:39:52.999Z,72.20
2023-01-07T16:42:20.667Z,72.50
2023-01-07T16:44:49.600Z,71.70
2023-01-07T16:47:24.630Z,71.70
2023-01-07T16:50:10.479Z,71.60
2023-01-07T16:52:37.205Z,71.90
2023-01-07T16:55:04.195Z,72.00
2023-01-07T16:57:41.653Z,71.90
2023-01-07T17:00:18.416Z,71.70
2023-01-07T17:03:05.535Z,71.30
2023-01-07T17:05:33.722Z,71.40
2023-01-07T17:08:02.392Z,71.60
2023-01-07T17:10:33.673Z,71.80
2023-01-07T17:13:15.723Z,71.70
2023-01-07T17:15:43.418Z,71.50
2023-01-07T17:18:16.294Z,71.60
2023-01-07T17:20:59.523Z,71.50
2023-01-07T17:23:26.344Z,71.30
2023-01-07T17:26:01.925Z,71.20
2023-01-07T17:28:30.299Z,71.00
2023-01-07T17:30:57.062Z,70.30
2023-01-07T17:33:24.466Z,70.80
2023-01-07T17:35:51.298Z,70.40
2023-01-07T17:38:18.147Z,70.20
2023-01-07T17:40:44.949Z,70.50
2023-01-07T17:43:34.833Z,70.50
2023-01-07T17:46:09.510Z,70.70
2023-01-07T17:48:36.397Z,70.40
2023-01-07T17:51:04.596Z,70.20
2023-01-07T17:53:54.467Z,70.30
2023-01-07T17:56:21.385Z,70.20
2023-01-07T17:58:48.163Z,70.10
2023-01-07T18:01:23.293Z,69.90
2023-01-07T18:03:50.976Z,69.70
2023-01-07T18:06:22.432Z,69.60
2023-01-07T18:08:49.922Z,69.20
2023-01-07T18:11:36.920Z,69.30
2023-01-07T18:14:03.973Z,69.60
2023-01-07T18:16:33.513Z,69.90
2023-01-07T18:19:07.634Z,70.10
2023-01-07T18:21:34.411Z,69.80
2023-01-07T18:24:01.133Z,69.80
2023-01-07T18:26:27.911Z,69.80
2023-01-07T18:28:54.714Z,69.90
2023-01-07T18:31:21.879Z,69.90
2023-01-07T18:33:48.792Z,69.80
2023-01-07T18:36:16.783Z,69.80
2023-01-07T18:38:43.680Z,70.00
2023-01-07T18:41:12.571Z,69.80
2023-01-07T18:43:39.266Z,69.40
2023-01-07T18:46:09.795Z,69.00
2023-01-07T18:48:37.896Z,69.10
2023-01-07T18:51:09.617Z,68.70
2023-01-07T18:53:36.419Z,68.80
2023-01-07T18:56:11.307Z,68.80
2023-01-07T18:58:38.942Z,68.90
2023-01-07T19:01:06.109Z,68.70
2023-01-07T19:03:42.132Z,68.70
2023-01-07T19:06:12.911Z,68.80
2023-01-07T19:08:39.731Z,68.40
2023-01-07T19:11:11.055Z,68.40
2023-01-07T19:13:39.152Z,68.70
2023-01-07T19:16:12.256Z,68.80
2023-01-07T19:18:39.249Z,68.50
2023-01-07T19:21:07.565Z,68.20
2023-01-07T19:23:34.360Z,68.20
2023-01-07T19:26:04.582Z,68.30
2023-01-07T19:28:32.756Z,68.70
2023-01-07T19:30:59.554Z,68.70
2023-01-07T19:33:26.268Z,68.40
2023-01-07T19:36:10.985Z,67.70
2023-01-07T19:38:43.834Z,68.00
2023-01-07T19:41:18.697Z,68.30
2023-01-07T19:43:48.673Z,68.60
2023-01-07T19:46:15.690Z,68.40
2023-01-07T19:48:44.868Z,67.90
2023-01-07T19:51:12.161Z,67.70
2023-01-07T19:53:39.150Z,67.80
2023-01-07T19:56:08.072Z,67.80
2023-01-07T19:58:35.063Z,67.80
2023-01-07T20:01:08.514Z,67.90
2023-01-07T20:03:35.838Z,68.10
2023-01-07T20:06:07.335Z,67.90
2023-01-07T20:08:34.325Z,67.80
2023-01-07T20:11:04.291Z,67.40
2023-01-07T20:13:33.759Z,67.60
2023-01-07T20:16:11.817Z,67.40
2023-01-07T20:18:50.823Z,67.50
2023-01-07T20:21:19.611Z,67.90
2023-01-07T20:23:48.485Z,67.90
2023-01-07T20:26:17.467Z,67.50
2023-01-07T20:28:44.217Z,67.00
2023-01-07T20:31:15.401Z,67.20
2023-01-07T20:33:45.473Z,67.50
2023-01-07T20:36:16.963Z,67.70
2023-01-07T20:38:43.989Z,67.60
2023-01-07T20:41:22.062Z,67.60
2023-01-07T20:43:55.733Z,67.50
2023-01-07T20:46:22.777Z,67.40
2023-01-07T20:48:49.754Z,66.80
2023-01-07T20:51:16.593Z,66.70
2023-01-07T20:53:43.630Z,66.70
2023-01-07T20:56:10.437Z,66.60
2023-01-07T20:58:37.418Z,67.00
2023-01-07T21:01:08.468Z,67.30
2023-01-07T21:03:38.463Z,67.40
2023-01-07T21:06:07.679Z,67.20
2023-01-07T21:08:35.574Z,68.00
2023-01-07T21:11:02.318Z,67.20
2023-01-07T21:13:29.093Z,67.10
2023-01-07T21:16:01.460Z,66.70
2023-01-07T21:18:28.217Z,66.80
2023-01-07T21:20:54.984Z,66.50
2023-01-07T21:23:21.761Z,66.60
2023-01-07T21:25:48.743Z,66.60
2023-01-07T21:28:15.859Z,66.50
2023-01-07T21:30:45.632Z,66.60
2023-01-07T21:33:12.460Z,66.50
2023-01-07T21:35:42.359Z,66.80
2023-01-07T21:38:09.152Z,67.60
2023-01-07T21:40:38.084Z,67.60
2023-01-07T21:43:04.933Z,67.60
2023-01-07T21:45:31.788Z,67.30
2023-01-07T21:47:58.619Z,67.20
2023-01-07T21:50:25.399Z,67.40
2023-01-07T21:52:52.183Z,67.40
2023-01-07T21:55:19.003Z,67.90
2023-01-07T21:57:45.804Z,66.90
2023-01-07T22:00:13.300Z,67.10
2023-01-07T22:02:40.091Z,67.70
2023-01-07T22:05:07.504Z,67.70
2023-01-07T22:07:34.275Z,67.70
2023-01-07T22:10:01.066Z,67.50
2023-01-07T22:12:27.789Z,67.20
2023-01-07T22:14:54.564Z,67.40
2023-01-07T22:17:21.407Z,67.20
2023-01-07T22:19:48.244Z,67.00
2023-01-07T22:22:16.740Z,67.10
2023-01-07T22:24:43.534Z,66.90
2023-01-07T22:27:10.343Z,66.80
2023-01-07T22:29:37.178Z,67.10
2023-01-07T22:32:04.047Z,67.00
2023-01-07T22:34:30.782Z,67.10
2023-01-07T22:37:17.411Z,67.00
2023-01-07T22:39:50.428Z,67.30
2023-01-07T22:42:22.946Z,67.10
2023-01-07T22:44:51.949Z,66.90
2023-01-07T22:47:20.164Z,66.60
2023-01-07T22:49:46.871Z,66.80
2023-01-07T22:52:13.584Z,67.30
2023-01-07T22:54:40.371Z,67.10
2023-01-07T22:57:08.022Z,66.60
2023-01-07T22:59:35.750Z,66.40
2023-01-07T23:02:02.600Z,66.20
2023-01-07T23:04:29.544Z,66.30
2023-01-07T23:06:56.477Z,66.60
2023-01-07T23:09:23.256Z,66.60
2023-01-07T23:11:50.827Z,66.40
2023-01-07T23:14:21.957Z,66.50
2023-01-07T23:16:49.018Z,66.50
2023-01-07T23:19:15.964Z,66.50
2023-01-07T23:21:43.547Z,66.20
2023-01-07T23:24:10.827Z,65.90
2023-01-07T23:26:37.696Z,66.00
2023-01-07T23:29:04.528Z,66.00
2023-01-07T23:31:33.459Z,66.20
2023-01-07T23:34:00.751Z,66.00
2023-01-07T23:36:27.766Z,66.20
2023-01-07T23:38:54.642Z,66.20
2023-01-07T23:41:21.404Z,66.40
2023-01-07T23:43:48.701Z,66.70
2023-01-07T23:46:15.598Z,66.50
2023-01-07T23:48:42.416Z,66.50
2023-01-07T23:51:15.184Z,66.30
2023-01-07T23:53:41.997Z,66.30
2023-01-07T23:56:08.848Z,66.20
2023-01-07T23:58:35.832Z,66.20
